Aeroporto :
LOGIN :

Iscrizione | Disclaimer

   EN    FR    IT 

 










Sommario :    VFR   VFR Marginale   IFR   IFR Intensivo   IFR Molto Intensivo
Visibilità : 
Base nubi : 
>= 8 km
>= 3000ft
5 / 8 km
1000 / 3000 ft
1500m / 5 km
500 / 1000 ft
800 / 1500m
200 / 500 ft
< 800m
< 200 ft
Simboli :   Temporali  Nebbia  Neve Forte  Precipitazioni Forti  Vento > 20 kt
SIGMETs :   Varie  Temporali  Ghiacco  Turbolenza  Onda orograficha  Ceneri Vulcaniche






- Altitudine del aeroporto : 404 ft
- Codice IATA : WRO


EPWR - Wroclaw

ULTIMO METAR :
  • 250600Z 12012KT CAVOK 16/13 Q0998

METARs OBSOLETI :
  • 250530Z 13011KT CAVOK 15/13 Q0999
  • 250500Z 13013KT CAVOK 15/13 Q0999
  • 250430Z 12011KT 8000 NSC 14/13 Q1000
  • 250400Z 13009KT 9000 NSC 14/13 Q1000

TAF TAF EPWR
Valido dal 25 a 06 ore il 26 a 06 ore UTC


250530Z 2506/2606 13013KT CAVOK
TEMPO 2506/2511 14015G25KT
BECMG 2509/2511 RA BKN014 OVC030
TEMPO 2511/2515 2500 SHRA BKN008 BKN013CB
BECMG 2512/2514 29016G27KT
BECMG 2515/2517 27005KT NSW BKN008
TEMPO 2518/2524 4000 BR BKN004
BECMG 2600/2603 02010KT RA SCT006 OVC013
TEMPO 2603/2606 2500 +RA BKN004 OVC010



MetMap, La meteo Aeronautica in un colpo d'occhio ! - Copyright ORBIFLY Dicembre 2007 - Disclaimer

ORBIFLY MET'MAP TEAM :

Programmazione e sviluppo : Alexandra Zaïnal
Concezione : Baudouin d'Aumeries
Aiuto per la programmazione : Marc-Olivier Méhu
Supporto tecnico e logistico : Manuel Goepfert
Aiuto per la traduzione : Arnaldo La Scala

Contatto : metmap@orbifly.com




FONTI E CREDITI :

   NOAA